Wind From: 13-12-2017 10:08 Until: 14-12-2017 06:00 warning for: Wind Level: Yellow info button

Although rather usual in this region, locally or potentially dangerous phenomena are expected. (such as local winds, summer thunderstorms, rising streams or high waves) Be aware and pay attention to the latest weather updates, especially if you carry out activities exposed to weather or close to a stream or shoreline. 


Meteo18 Weather Cam more information Meteo18 Weather Cam


Thunder radar more information blitzortung!


Rain radar more information rain snow radar


Visit our other weather sites:

Template documentation
and downloads

And another site



Weather Underground History page Text

Daily Summary for March 18, 2017 Units:  English    Metric   Both
« Previous Day
Next Day »
Daily Weekly Monthly Yearly Custom
  High: Low: Average:
Temperature: 50.2 °F 43.5 °F 46.9 °F
Dew Point: 47.1 °F 40.5 °F 43.7 °F
Humidity: 91 % 83 % 89 %
Wind Speed: 19 mph 0 mph 7.5 mph
Wind Gust: 24 mph - -
Wind:- - WSW
Pressure: 30.2 in 30.1 in -
Precipitation: 0 in    
Historical Graphs
 
 
Tabular Data for March 18, 2017
Time Temperature Dew Point Pressure Wind Wind Speed Wind Gust Humidity Rainfall Rate (Hourly)
00:02 45.3 °F 40.5 °F 30.2 in West 3 mph 5 mph 83 % 0 in
00:07 45.3 °F 40.8 °F 30.2 in Calm   5 mph 84 % 0 in
00:12 45.1 °F 40.6 °F 30.2 in SW 1 mph 5 mph 84 % 0 in
00:17 45.1 °F 40.6 °F 30.2 in WSW 2 mph 5 mph 84 % 0 in
00:22 45 °F 40.6 °F 30.2 in West 1 mph 5 mph 85 % 0 in
00:32 45 °F 40.6 °F 30.2 in West 1 mph 4 mph 85 % 0 in
00:42 44.8 °F 40.5 °F 30.2 in West 3 mph 5 mph 85 % 0 in
00:47 44.8 °F 40.8 °F 30.2 in WSW 2 mph 6 mph 86 % 0 in
00:52 44.8 °F 40.8 °F 30.2 in West 1 mph 6 mph 86 % 0 in
00:57 45 °F 41 °F 30.2 in WNW 2 mph 5 mph 86 % 0 in
01:02 45 °F 41 °F 30.2 in WSW 2 mph 5 mph 86 % 0 in
01:07 45 °F 41 °F 30.2 in West 1 mph 6 mph 86 % 0 in
01:12 45.1 °F 40.8 °F 30.2 in WSW 4 mph 7 mph 85 % 0 in
01:17 45.1 °F 40.8 °F 30.2 in SW 3 mph 8 mph 85 % 0 in
01:22 45 °F 40.6 °F 30.2 in SW 4 mph 8 mph 85 % 0 in
01:27 44.8 °F 40.5 °F 30.2 in WSW 5 mph 7 mph 85 % 0 in
01:32 44.6 °F 40.6 °F 30.2 in WSW 3 mph 7 mph 86 % 0 in
01:37 44.8 °F 41.2 °F 30.2 in WSW 4 mph 7 mph 87 % 0 in
01:42 44.8 °F 41.2 °F 30.2 in SW 3 mph 9 mph 87 % 0 in
01:47 44.8 °F 41.2 °F 30.2 in SW 1 mph 9 mph 87 % 0 in
01:52 44.6 °F 41 °F 30.2 in West 4 mph 8 mph 87 % 0 in
01:57 44.4 °F 40.8 °F 30.2 in WSW 4 mph 8 mph 87 % 0 in
02:02 44.4 °F 40.8 °F 30.2 in WSW 1 mph 7 mph 87 % 0 in
02:07 44.4 °F 40.8 °F 30.2 in WSW 3 mph 7 mph 87 % 0 in
02:12 44.4 °F 40.8 °F 30.2 in SW 4 mph 8 mph 87 % 0 in
02:17 44.4 °F 40.8 °F 30.2 in SW 2 mph 8 mph 87 % 0 in
02:22 44.2 °F 40.6 °F 30.2 in SW 4 mph 8 mph 87 % 0 in
02:27 44.1 °F 41 °F 30.2 in SW 3 mph 8 mph 89 % 0 in
02:32 44.2 °F 41 °F 30.2 in SW 3 mph 8 mph 88 % 0 in
02:37 44.1 °F 40.8 °F 30.2 in SW 4 mph 11 mph 88 % 0 in
02:42 43.5 °F 40.5 °F 30.2 in SW 6 mph 7 mph 89 % 0 in
02:47 43.5 °F 40.8 °F 30.2 in SW 3 mph 8 mph 90 % 0 in
02:52 43.5 °F 40.8 °F 30.2 in SW 2 mph 9 mph 90 % 0 in
03:02 44.1 °F 41 °F 30.2 in SW 5 mph 9 mph 89 % 0 in
03:07 44.1 °F 40.8 °F 30.2 in SSW 6 mph 11 mph 88 % 0 in
03:12 44.1 °F 40.8 °F 30.2 in SSW 4 mph 11 mph 88 % 0 in
03:17 44.1 °F 40.8 °F 30.2 in SW 3 mph 11 mph 88 % 0 in
03:22 43.9 °F 40.8 °F 30.2 in WSW 5 mph 8 mph 89 % 0 in
03:27 43.9 °F 40.8 °F 30.2 in SW 7 mph 7 mph 89 % 0 in
03:32 44.1 °F 41 °F 30.1 in WSW 8 mph 9 mph 89 % 0 in
03:37 44.2 °F 41 °F 30.1 in SW 6 mph 11 mph 88 % 0 in
03:42 44.2 °F 41 °F 30.2 in WSW 6 mph 12 mph 88 % 0 in
03:47 44.2 °F 41 °F 30.2 in WSW 11 mph 12 mph 88 % 0 in
03:52 44.2 °F 41 °F 30.2 in WSW 5 mph 12 mph 88 % 0 in
03:57 44.2 °F 41 °F 30.2 in SSW 5 mph 12 mph 88 % 0 in
04:02 44.2 °F 41 °F 30.2 in West 5 mph 12 mph 88 % 0 in
04:07 44.2 °F 41.2 °F 30.2 in WSW 5 mph 13 mph 89 % 0 in
04:12 44.2 °F 41.2 °F 30.2 in WSW 10 mph 13 mph 89 % 0 in
04:17 44.2 °F 41 °F 30.2 in SW 6 mph 13 mph 88 % 0 in
04:22 44.2 °F 41 °F 30.1 in WSW 5 mph 13 mph 88 % 0 in
04:27 44.2 °F 41.2 °F 30.1 in SSW 2 mph 13 mph 89 % 0 in
04:32 44.1 °F 41 °F 30.1 in SW 7 mph 13 mph 89 % 0 in
04:37 43.9 °F 40.8 °F 30.1 in SSW 7 mph 9 mph 89 % 0 in
04:42 43.9 °F 40.8 °F 30.1 in SW 8 mph 12 mph 89 % 0 in
04:47 43.7 °F 41 °F 30.1 in SW 7 mph 12 mph 90 % 0 in
04:52 43.5 °F 40.8 °F 30.1 in SSW 4 mph 12 mph 90 % 0 in
04:57 43.5 °F 40.8 °F 30.1 in SW 5 mph 12 mph 90 % 0 in
05:02 43.5 °F 40.8 °F 30.1 in SW 6 mph 12 mph 90 % 0 in
05:12 43.5 °F 40.8 °F 30.1 in SW 2 mph 10 mph 90 % 0 in
05:17 43.7 °F 41 °F 30.1 in SSW 6 mph 12 mph 90 % 0 in
05:22 43.7 °F 41 °F 30.1 in SW 9 mph 12 mph 90 % 0 in
05:27 43.9 °F 41.2 °F 30.1 in SW 4 mph 12 mph 90 % 0 in
05:32 43.9 °F 41.4 °F 30.1 in SW 6 mph 12 mph 91 % 0 in
05:42 43.9 °F 41.4 °F 30.1 in WSW 10 mph 13 mph 91 % 0 in
05:52 43.9 °F 41.4 °F 30.1 in West 9 mph 12 mph 91 % 0 in
05:57 44.1 °F 41.5 °F 30.1 in SW 3 mph 13 mph 91 % 0 in
06:02 44.1 °F 41.5 °F 30.1 in SW 9 mph 13 mph 91 % 0 in
06:12 44.2 °F 41.5 °F 30.1 in WSW 6 mph 12 mph 90 % 0 in
06:17 44.4 °F 41.7 °F 30.1 in SSW 6 mph 11 mph 90 % 0 in
06:22 44.4 °F 41.7 °F 30.1 in WSW 6 mph 11 mph 90 % 0 in
06:32 44.8 °F 42.1 °F 30.1 in SW 9 mph 14 mph 90 % 0 in
06:42 44.8 °F 42.1 °F 30.1 in SW 7 mph 16 mph 90 % 0 in
06:47 44.8 °F 41.7 °F 30.1 in WSW 9 mph 16 mph 89 % 0 in
06:52 44.8 °F 41.7 °F 30.1 in WSW 11 mph 16 mph 89 % 0 in
06:57 44.8 °F 41.7 °F 30.1 in SW 7 mph 16 mph 89 % 0 in
07:02 45 °F 41.9 °F 30.1 in WSW 10 mph 16 mph 89 % 0 in
07:12 45 °F 41.9 °F 30.1 in WSW 4 mph 16 mph 89 % 0 in
07:22 45 °F 41.5 °F 30.1 in WSW 8 mph 16 mph 88 % 0 in
07:32 45 °F 41.5 °F 30.1 in WSW 9 mph 18 mph 88 % 0 in
07:37 45 °F 41.5 °F 30.1 in WSW 8 mph 18 mph 88 % 0 in
07:42 45 °F 41.5 °F 30.1 in WSW 8 mph 18 mph 88 % 0 in
07:47 44.8 °F 41.4 °F 30.1 in SSW 6 mph 20 mph 88 % 0 in
07:52 44.8 °F 41.4 °F 30.1 in WNW 16 mph 20 mph 88 % 0 in
08:02 44.8 °F 41.2 °F 30.1 in SW 13 mph 16 mph 87 % 0 in
08:07 44.8 °F 41.4 °F 30.1 in West 13 mph 22 mph 88 % 0 in
08:12 44.8 °F 41.2 °F 30.1 in WSW 9 mph 22 mph 87 % 0 in
08:17 44.8 °F 41.2 °F 30.1 in WSW 13 mph 23 mph 87 % 0 in
08:22 44.8 °F 41.2 °F 30.1 in WSW 11 mph 23 mph 87 % 0 in
08:32 44.6 °F 41 °F 30.1 in SW 12 mph 23 mph 87 % 0 in
08:37 44.4 °F 40.8 °F 30.1 in West 7 mph 21 mph 87 % 0 in
08:42 44.4 °F 41.2 °F 30.1 in WSW 13 mph 21 mph 88 % 0 in
08:47 44.4 °F 41.2 °F 30.1 in West 5 mph 17 mph 88 % 0 in
08:52 44.2 °F 41 °F 30.1 in SW 10 mph 17 mph 88 % 0 in
08:57 44.2 °F 41.2 °F 30.1 in WSW 10 mph 15 mph 89 % 0 in
09:02 44.2 °F 41 °F 30.1 in West 12 mph 15 mph 88 % 0 in
09:07 44.4 °F 41.2 °F 30.1 in WSW 9 mph 19 mph 88 % 0 in
09:12 44.4 °F 41.2 °F 30.1 in West 7 mph 19 mph 88 % 0 in
09:17 44.4 °F 41.2 °F 30.1 in WSW 19 mph 19 mph 88 % 0 in
09:22 44.2 °F 41.2 °F 30.1 in West 14 mph 19 mph 89 % 0 in
09:32 44.2 °F 41.2 °F 30.2 in WSW 6 mph 19 mph 89 % 0 in
09:37 44.4 °F 41.4 °F 30.1 in West 10 mph 19 mph 89 % 0 in
09:42 44.4 °F 41.7 °F 30.2 in West 3 mph 19 mph 90 % 0 in
09:47 44.4 °F 41.7 °F 30.2 in WSW 5 mph 18 mph 90 % 0 in
09:52 44.4 °F 41.7 °F 30.2 in West 9 mph 18 mph 90 % 0 in
10:02 44.8 °F 42.1 °F 30.2 in WSW 3 mph 22 mph 90 % 0 in
10:12 45.1 °F 42.1 °F 30.2 in WSW 13 mph 22 mph 89 % 0 in
10:17 45.1 °F 42.1 °F 30.2 in WSW 18 mph 18 mph 89 % 0 in
10:22 45.1 °F 42.1 °F 30.2 in WSW 12 mph 16 mph 89 % 0 in
10:27 45.3 °F 42.3 °F 30.2 in SW 7 mph 21 mph 89 % 0 in
10:37 45.3 °F 42.3 °F 30.2 in West 10 mph 21 mph 89 % 0 in
10:42 45.3 °F 42.3 °F 30.2 in WSW 6 mph 21 mph 89 % 0 in
10:47 45.5 °F 42.4 °F 30.2 in WSW 9 mph 22 mph 89 % 0 in
10:52 45.3 °F 42.3 °F 30.2 in SW 10 mph 22 mph 89 % 0 in
11:02 45.3 °F 42.3 °F 30.2 in WNW 9 mph 18 mph 89 % 0 in
11:12 45.5 °F 42.8 °F 30.2 in West 9 mph 20 mph 90 % 0 in
11:17 45.5 °F 42.8 °F 30.2 in SW 9 mph 18 mph 90 % 0 in
11:22 45.5 °F 42.8 °F 30.2 in West 12 mph 18 mph 90 % 0 in
11:27 45.7 °F 43 °F 30.2 in WSW 11 mph 21 mph 90 % 0 in
11:32 45.7 °F 43 °F 30.2 in WSW 12 mph 21 mph 90 % 0 in
11:37 45.9 °F 43.2 °F 30.2 in WSW 15 mph 21 mph 90 % 0 in
11:42 45.7 °F 43 °F 30.2 in West 10 mph 23 mph 90 % 0 in
11:47 45.9 °F 43.2 °F 30.2 in West 7 mph 23 mph 90 % 0 in
11:52 45.9 °F 43.2 °F 30.2 in WSW 10 mph 23 mph 90 % 0 in
11:57 45.9 °F 43.2 °F 30.2 in West 8 mph 21 mph 90 % 0 in
12:02 46 °F 43.3 °F 30.2 in WNW 7 mph 21 mph 90 % 0 in
12:12 46 °F 43.3 °F 30.2 in WSW 5 mph 18 mph 90 % 0 in
12:17 46 °F 43.3 °F 30.2 in WSW 6 mph 18 mph 90 % 0 in
12:22 46.2 °F 43.5 °F 30.2 in WSW 10 mph 18 mph 90 % 0 in
12:27 46.2 °F 43.5 °F 30.2 in WSW 10 mph 18 mph 90 % 0 in
12:32 46.4 °F 43.7 °F 30.2 in WSW 9 mph 17 mph 90 % 0 in
12:37 46.6 °F 43.9 °F 30.2 in WSW 6 mph 17 mph 90 % 0 in
12:42 46.6 °F 43.9 °F 30.2 in WSW 11 mph 15 mph 90 % 0 in
12:47 46.8 °F 43.7 °F 30.2 in West 10 mph 17 mph 89 % 0 in
12:52 46.8 °F 44.1 °F 30.2 in WSW 10 mph 17 mph 90 % 0 in
12:57 46.8 °F 44.1 °F 30.2 in WSW 15 mph 16 mph 90 % 0 in
13:02 46.9 °F 44.2 °F 30.2 in WSW 15 mph 16 mph 90 % 0 in
13:12 46.9 °F 44.2 °F 30.2 in WSW 15 mph 20 mph 90 % 0 in
13:17 46.9 °F 44.2 °F 30.2 in SW 8 mph 20 mph 90 % 0 in
13:22 47.1 °F 44.4 °F 30.2 in WSW 9 mph 20 mph 90 % 0 in
13:27 47.1 °F 44.4 °F 30.2 in WSW 9 mph 20 mph 90 % 0 in
13:32 47.1 °F 44.4 °F 30.2 in West 10 mph 20 mph 90 % 0 in
13:37 47.5 °F 44.8 °F 30.2 in WSW 10 mph 18 mph 90 % 0 in
13:42 47.7 °F 45 °F 30.2 in SSW 7 mph 22 mph 90 % 0 in
13:47 47.8 °F 44.8 °F 30.2 in WSW 8 mph 22 mph 89 % 0 in
13:52 48 °F 45 °F 30.2 in West 12 mph 22 mph 89 % 0 in
13:57 48.2 °F 45.1 °F 30.2 in WSW 10 mph 17 mph 89 % 0 in
14:02 48.2 °F 45.1 °F 30.2 in WSW 10 mph 17 mph 89 % 0 in
14:07 48.2 °F 45.1 °F 30.2 in SW 9 mph 19 mph 89 % 0 in
14:12 48.2 °F 45.1 °F 30.2 in SW 7 mph 21 mph 89 % 0 in
14:17 48.4 °F 45.3 °F 30.2 in WSW 14 mph 21 mph 89 % 0 in
14:22 48.6 °F 45.5 °F 30.2 in West 7 mph 21 mph 89 % 0 in
14:32 48.9 °F 45.9 °F 30.2 in SW 7 mph 21 mph 89 % 0 in
14:37 48.9 °F 45.5 °F 30.2 in SW 10 mph 21 mph 88 % 0 in
14:42 48.9 °F 45.5 °F 30.2 in WSW 8 mph 21 mph 88 % 0 in
14:47 48.9 °F 45.5 °F 30.2 in West 4 mph 19 mph 88 % 0 in
14:52 48.7 °F 45.3 °F 30.2 in WSW 9 mph 16 mph 88 % 0 in
14:57 48.7 °F 45.3 °F 30.2 in WSW 12 mph 16 mph 88 % 0 in
15:02 48.7 °F 45.3 °F 30.2 in SW 10 mph 16 mph 88 % 0 in
15:07 48.9 °F 45.9 °F 30.2 in West 7 mph 19 mph 89 % 0 in
15:12 48.7 °F 45.3 °F 30.2 in WSW 17 mph 20 mph 88 % 0 in
15:17 48.7 °F 45.7 °F 30.2 in West 7 mph 20 mph 89 % 0 in
15:22 48.7 °F 45.7 °F 30.2 in WSW 13 mph 20 mph 89 % 0 in
15:27 48.7 °F 45.7 °F 30.2 in WSW 12 mph 21 mph 89 % 0 in
15:32 48.9 °F 45.9 °F 30.2 in WSW 12 mph 21 mph 89 % 0 in
15:37 48.9 °F 45.9 °F 30.2 in WSW 8 mph 21 mph 89 % 0 in
15:42 49.1 °F 46 °F 30.1 in SW 17 mph 19 mph 89 % 0 in
15:47 49.1 °F 46 °F 30.1 in WSW 16 mph 19 mph 89 % 0 in
15:52 49.3 °F 46.2 °F 30.1 in SW 7 mph 19 mph 89 % 0 in
15:57 49.5 °F 46.4 °F 30.1 in West 12 mph 24 mph 89 % 0 in
16:02 49.5 °F 46 °F 30.1 in WSW 15 mph 24 mph 88 % 0 in
16:12 49.8 °F 46.8 °F 30.1 in WSW 13 mph 19 mph 89 % 0 in
16:22 49.8 °F 46.4 °F 30.1 in West 15 mph 18 mph 88 % 0 in
16:32 49.8 °F 46.4 °F 30.1 in WSW 9 mph 20 mph 88 % 0 in
16:37 49.8 °F 46.4 °F 30.1 in West 6 mph 23 mph 88 % 0 in
16:42 49.8 °F 46.4 °F 30.1 in West 6 mph 22 mph 88 % 0 in
16:47 49.8 °F 46.4 °F 30.1 in West 6 mph 22 mph 88 % 0 in
16:52 49.6 °F 46.6 °F 30.1 in West 10 mph 22 mph 89 % 0 in
16:57 49.6 °F 46.6 °F 30.1 in SW 13 mph 21 mph 89 % 0 in
17:02 49.6 °F 46.6 °F 30.1 in WSW 10 mph 21 mph 89 % 0 in
17:07 49.6 °F 46.6 °F 30.1 in SW 9 mph 19 mph 89 % 0 in
17:12 49.6 °F 46.6 °F 30.1 in SW 7 mph 19 mph 89 % 0 in
17:17 49.6 °F 46.6 °F 30.1 in WSW 10 mph 18 mph 89 % 0 in
17:22 49.6 °F 46.6 °F 30.1 in WSW 10 mph 18 mph 89 % 0 in
17:27 49.6 °F 46.6 °F 30.1 in WSW 12 mph 19 mph 89 % 0 in
17:32 49.6 °F 46.6 °F 30.1 in WNW 13 mph 19 mph 89 % 0 in
17:37 49.6 °F 46.6 °F 30.2 in West 8 mph 23 mph 89 % 0 in
17:42 49.6 °F 46.6 °F 30.2 in NW 9 mph 20 mph 89 % 0 in
17:47 49.6 °F 46.6 °F 30.2 in WSW 10 mph 20 mph 89 % 0 in
17:52 49.6 °F 46.6 °F 30.1 in WSW 7 mph 16 mph 89 % 0 in
17:57 49.6 °F 46.6 °F 30.1 in West 12 mph 15 mph 89 % 0 in
18:02 49.6 °F 46.6 °F 30.1 in WSW 10 mph 15 mph 89 % 0 in
18:07 49.6 °F 46.6 °F 30.1 in SW 8 mph 17 mph 89 % 0 in
18:17 49.6 °F 46.6 °F 30.1 in West 9 mph 17 mph 89 % 0 in
18:22 49.6 °F 46.6 °F 30.1 in WSW 13 mph 23 mph 89 % 0 in
18:32 49.8 °F 46.4 °F 30.1 in WNW 8 mph 23 mph 88 % 0 in
18:37 49.8 °F 46.4 °F 30.1 in SW 11 mph 23 mph 88 % 0 in
18:42 49.8 °F 46 °F 30.1 in West 7 mph 17 mph 87 % 0 in
18:52 49.8 °F 46.4 °F 30.2 in SW 6 mph 18 mph 88 % 0 in
18:57 49.8 °F 46 °F 30.2 in SSW 6 mph 15 mph 87 % 0 in
19:02 49.8 °F 46 °F 30.2 in SW 6 mph 15 mph 87 % 0 in
19:12 49.8 °F 46 °F 30.2 in West 8 mph 15 mph 87 % 0 in
19:17 49.8 °F 46 °F 30.2 in SW 11 mph 14 mph 87 % 0 in
19:22 49.8 °F 46 °F 30.2 in SSW 10 mph 14 mph 87 % 0 in
19:27 50 °F 46.2 °F 30.2 in WSW 9 mph 16 mph 87 % 0 in
19:32 50 °F 46.2 °F 30.2 in WSW 6 mph 16 mph 87 % 0 in
19:42 50 °F 46.2 °F 30.2 in WSW 6 mph 16 mph 87 % 0 in
19:47 50 °F 46.2 °F 30.2 in SW 6 mph 15 mph 87 % 0 in
19:52 50.2 °F 46.4 °F 30.2 in WSW 8 mph 14 mph 87 % 0 in
19:57 50.2 °F 46.4 °F 30.2 in SSW 6 mph 12 mph 87 % 0 in
20:02 50.2 °F 46.4 °F 30.2 in WSW 4 mph 12 mph 87 % 0 in
20:07 50.2 °F 46.4 °F 30.2 in SSW 2 mph 15 mph 87 % 0 in
20:12 50.2 °F 46.4 °F 30.2 in WSW 5 mph 12 mph 87 % 0 in
20:17 50.2 °F 46.4 °F 30.2 in WSW 6 mph 12 mph 87 % 0 in
20:22 50.2 °F 46.4 °F 30.2 in SW 6 mph 12 mph 87 % 0 in
20:32 50.2 °F 46.8 °F 30.2 in SSW 3 mph 9 mph 88 % 0 in
20:37 50.2 °F 46.8 °F 30.2 in WSW 7 mph 14 mph 88 % 0 in
20:42 50.2 °F 46.8 °F 30.2 in SSW 6 mph 14 mph 88 % 0 in
20:47 50.2 °F 46.8 °F 30.2 in WSW 6 mph 14 mph 88 % 0 in
20:52 50.2 °F 46.8 °F 30.2 in SSW 5 mph 14 mph 88 % 0 in
20:57 50.2 °F 46.8 °F 30.2 in WSW 1 mph 14 mph 88 % 0 in
21:02 50.2 °F 46.8 °F 30.2 in SSW 2 mph 14 mph 88 % 0 in
21:07 50.2 °F 46.8 °F 30.2 in West 4 mph 10 mph 88 % 0 in
21:12 50.2 °F 46.8 °F 30.2 in WSW 4 mph 10 mph 88 % 0 in
21:17 50.2 °F 46.8 °F 30.2 in SW 5 mph 13 mph 88 % 0 in
21:27 50.2 °F 47.1 °F 30.2 in West 5 mph 13 mph 89 % 0 in
21:32 50.2 °F 47.1 °F 30.2 in WSW 7 mph 13 mph 89 % 0 in
21:37 50.2 °F 47.1 °F 30.2 in SW 6 mph 12 mph 89 % 0 in
21:42 50.2 °F 47.1 °F 30.2 in SSW 6 mph 12 mph 89 % 0 in
21:47 50.2 °F 47.1 °F 30.2 in SW 8 mph 12 mph 89 % 0 in
21:57 50.2 °F 47.1 °F 30.2 in SW 8 mph 12 mph 89 % 0 in
22:02 50.2 °F 47.1 °F 30.2 in SW 9 mph 12 mph 89 % 0 in
22:07 50.2 °F 47.1 °F 30.2 in SW 8 mph 11 mph 89 % 0 in
22:17 50.2 °F 47.1 °F 30.2 in SSW 5 mph 11 mph 89 % 0 in
22:22 50.2 °F 47.1 °F 30.2 in SW 4 mph 11 mph 89 % 0 in
22:32 50.2 °F 47.1 °F 30.2 in WSW 5 mph 12 mph 89 % 0 in
22:37 50.2 °F 47.1 °F 30.2 in SW 5 mph 12 mph 89 % 0 in
22:42 50 °F 46.9 °F 30.2 in SW 8 mph 12 mph 89 % 0 in
22:47 50 °F 46.9 °F 30.2 in WSW 8 mph 13 mph 89 % 0 in
22:52 50 °F 47.1 °F 30.2 in SSW 7 mph 13 mph 90 % 0 in
22:57 49.8 °F 46.9 °F 30.2 in WSW 4 mph 13 mph 90 % 0 in
23:02 49.8 °F 46.9 °F 30.2 in West 9 mph 13 mph 90 % 0 in
23:07 49.8 °F 46.9 °F 30.2 in SW 5 mph 14 mph 90 % 0 in
23:12 49.8 °F 46.9 °F 30.2 in SW 5 mph 14 mph 90 % 0 in
23:17 49.8 °F 46.9 °F 30.2 in WSW 7 mph 14 mph 90 % 0 in
23:22 49.8 °F 46.9 °F 30.2 in WSW 9 mph 14 mph 90 % 0 in
23:32 49.8 °F 46.9 °F 30.2 in SW 4 mph 14 mph 90 % 0 in
23:37 49.8 °F 46.9 °F 30.2 in SSW 6 mph 16 mph 90 % 0 in
23:42 49.8 °F 46.9 °F 30.2 in WNW 7 mph 16 mph 90 % 0 in
23:52 50 °F 47.1 °F 30.2 in West 7 mph 16 mph 90 % 0 in
23:57 50 °F 47.1 °F 30.2 in West 8 mph 15 mph 90 % 0 in
Meteo18
Compliments of Weather Underground - 4 mb

Script developed by  Jim McMurry - jmcmurry@mwt.net Adapted for the template by  Wim van der Kuil - Leuven-Template.eu

You find our weather info also at:

European Weather Network

Weather Underground

Equipment we use:

Weather-station
Davis Vue

Weather-program
Meteohub

Weather-server
Raspberry PI 2 B+

Provider
1 and 1

Davis Vue

Meteohub

Raspberry PI 2 B+

1 and 1